Aeroporto :
LOGIN :

Iscrizione | Disclaimer

   EN    FR    IT 

 










Sommario :    VFR   VFR Marginale   IFR   IFR Intensivo   IFR Molto Intensivo
Visibilità : 
Base nubi : 
>= 8 km
>= 3000ft
5 / 8 km
1000 / 3000 ft
1500m / 5 km
500 / 1000 ft
800 / 1500m
200 / 500 ft
< 800m
< 200 ft
Simboli :   Temporali  Nebbia  Neve Forte  Precipitazioni Forti  Vento > 20 kt
SIGMETs :   Varie  Temporali  Ghiacco  Turbolenza  Onda orograficha  Ceneri Vulcaniche






- Altitudine del aeroporto : 1247 ft
- Codice IATA : PRG


LKPR - Praha Ruzyne

ULTIMO METAR :
  • 221200Z 12005KT 9999 BKN026 09/05 Q1010 NOSIG

METARs OBSOLETI :
  • 221130Z 12005KT 9999 BKN024 09/05 Q1011 NOSIG
  • 221100Z 15006KT 9999 FEW017 OVC022 09/05 Q1011 NOSIG
  • 221030Z 13008KT 090V160 9999 OVC018 08/05 Q1011 NOSIG
  • 221000Z 12007KT 9999 OVC017 08/05 Q1011 NOSIG
  • 220930Z 12006KT 9999 OVC017 08/05 Q1011 NOSIG

TAF TAF LKPR
Valido dal 22 a 12 ore il 23 a 18 ore UTC


221100Z 2212/2318 13008KT 9999 SCT006 OVC020
BECMG 2212/2215 9999 BKN026
TEMPO 2221/2308 5000 BR SCT006 SCT020



MetMap, La meteo Aeronautica in un colpo d'occhio ! - Copyright ORBIFLY Dicembre 2007 - Disclaimer

ORBIFLY MET'MAP TEAM :

Programmazione e sviluppo : Alexandra Zaïnal
Concezione e sviluppo : Baudouin d'Aumeries
Co-Programmazione e sviluppo : Marc-Olivier Méhu
Supporto tecnico e logistico : Manuel Goepfert
Aiuto per la traduzione : Arnaldo La Scala

Contatto : metmap@orbifly.com




FONTI E CREDITI :

   NOAA